KAKH/AKH METAR and TAF weather

Enter ICAO airport designator
Station Type Date Time Source
KAKH METAR 2021/01/16 03:37 UTC NOAA

KAKH 160337Z AUTO 00000KT 3/4SM BR SCT002 SCT090 03/01 A2968 RMK AO2 T00280011


Station Type Date Time Source
KAKH Decoded METAR 2021/01/16 03:37 UTC NOAA

GASTONIA MUNICIPAL AIRPORT, NC, United States (KAKH) 35-12N 81-09W 243M
Jan 15, 2021 - 10:37 PM EST / 2021.01.16 0337 UTC
Wind: Calm:0
Visibility: 3/4 mile(s):0
Sky conditions: partly cloudy
Weather: mist
Temperature: 37.0 F (2.8 C)
Dew Point: 34.0 F (1.1 C)
Relative Humidity: 88%
Pressure (altimeter): 29.68 in. Hg (1005 hPa)
ob: KAKH 160337Z AUTO 00000KT 3/4SM BR SCT002 SCT090 03/01 A2968 RMK AO2 T00280011
cycle: 3

Station Type Date Time Source
KAKH TAF UTC NOAA

Error!

Example: see airport list